Time;durP1;ratioP1;P1;durP2;ratioP2;P2;SDS_P1;SDS_P2;PMS_P1;PMS_P2;Temp;Humidity;BMP_temperature;BMP_pressure;BME280_temperature;BME280_humidity;BME280_pressure;Samples;Min_cycle;Max_cycle;Signal;HPM_P1;HPM_P2
2022/10/17 00:01:55;;;;;;;;;;;;;;;3.48;100.00;96301.09;5016738;28;20362;-68
2022/10/17 00:04:22;;;;;;;;;;;;;;;3.32;100.00;96296.63;5007270;28;19951;-69
2022/10/17 00:06:49;;;;;;;;;;;;;;;3.18;100.00;96292.81;5016297;28;19929;-68
2022/10/17 00:09:15;;;;;;;;;;;;;;;3.43;100.00;96293.00;5012230;28;19929;-68
2022/10/17 00:11:42;;;;;;;;;;;;;;;3.38;100.00;96290.06;5013243;28;19990;-69
2022/10/17 00:14:08;;;;;;;;;;;;;;;3.27;100.00;96292.88;5008534;28;19965;-68
2022/10/17 00:16:36;;;;;;;;;;;;;;;3.19;100.00;96286.72;5012468;28;19940;-69
2022/10/17 00:19:03;;;;;;;;;;;;;;;3.03;100.00;96289.16;5009443;28;19931;-69
2022/10/17 00:21:30;;;;;;;;;;;;;;;3.12;100.00;96290.84;5016312;28;20325;-68
2022/10/17 00:23:57;;;;;;;;;;;;;;;3.24;100.00;96294.81;5008852;28;20636;-68
2022/10/17 00:26:27;;;;;;;;;;;;;;;3.13;100.00;96295.00;5013180;28;20008;-68
2022/10/17 00:28:54;;;;;;;;;;;;;;;3.08;100.00;96292.09;5010941;28;19979;-68
2022/10/17 00:31:21;;;;;;;;;;;;;;;2.94;100.00;96292.63;4992007;28;19925;-68
2022/10/17 00:33:48;;;;;;;;;;;;;;;2.98;100.00;96286.22;4994978;28;19926;-68
2022/10/17 00:36:19;;;;;;;;;;;;;;;3.02;100.00;96290.09;5005336;28;19940;-68
2022/10/17 00:38:48;;;;;;;;;;;;;;;2.89;100.00;96287.09;5000692;28;19936;-68
2022/10/17 00:41:16;;;;;;;;;;;;;;;2.89;100.00;96284.53;5007232;28;20029;-68
2022/10/17 00:43:51;;;;;;;;;;;;;;;2.99;100.00;96290.38;4996059;28;19930;-67
2022/10/17 00:46:17;;;;;;;;;;;;;;;3.01;100.00;96288.50;5009236;28;19925;-68
2022/10/17 00:48:45;;;;;;;;;;;;;;;3.07;100.00;96298.19;5009998;28;19936;-68
2022/10/17 00:51:11;;;;;;;;;;;;;;;3.09;100.00;96296.28;5005989;28;19930;-67
2022/10/17 00:53:39;;;;;;;;;;;;;;;3.12;100.00;96296.00;4999475;28;19925;-66
2022/10/17 00:56:05;;;;;;;;;;;;;;;3.24;100.00;96305.09;5008682;28;19987;-66
2022/10/17 00:58:32;;;;;;;;;;;;;;;3.39;100.00;96291.69;5011172;28;20689;-67
2022/10/17 01:01:00;;;;;;;;;;;;;;;3.38;100.00;96292.63;5008646;28;19976;-67
2022/10/17 01:03:27;;;;;;;;;;;;;;;3.60;100.00;96299.06;4993533;28;20216;-67
2022/10/17 01:05:54;;;;;;;;;;;;;;;3.39;100.00;96287.34;5014010;28;20398;-67
2022/10/17 01:08:20;;;;;;;;;;;;;;;3.24;100.00;96294.81;4992202;28;19933;-67
2022/10/17 01:10:53;;;;;;;;;;;;;;;3.18;100.00;96295.38;5016338;28;19933;-66
2022/10/17 01:13:43;;;;;;;;;;;;;;;3.14;100.00;96296.66;5009499;28;20475;-67
2022/10/17 01:16:17;;;;;;;;;;;;;;;3.08;100.00;96294.69;5009936;28;20031;-66
2022/10/17 01:18:47;;;;;;;;;;;;;;;3.21;100.00;96289.94;5012020;28;20686;-66
2022/10/17 01:21:34;;;;;;;;;;;;;;;3.04;100.00;96286.44;5020029;28;21372;-66
2022/10/17 01:24:19;;;;;;;;;;;;;;;3.04;100.00;96283.03;4992017;28;19930;-66
2022/10/17 01:26:49;;;;;;;;;;;;;;;2.92;100.00;96285.03;5014839;28;19925;-66
2022/10/17 01:29:31;;;;;;;;;;;;;;;2.79;100.00;96285.41;5009445;28;20285;-66
2022/10/17 01:32:01;;;;;;;;;;;;;;;2.78;100.00;96268.34;5018977;28;19980;-68
2022/10/17 01:34:28;;;;;;;;;;;;;;;2.81;100.00;96280.91;4993462;28;20008;-67
2022/10/17 01:36:59;;;;;;;;;;;;;;;2.87;100.00;96282.09;4989292;28;19925;-68
2022/10/17 01:39:44;;;;;;;;;;;;;;;2.81;100.00;96288.63;5008338;28;19932;-67
2022/10/17 01:42:27;;;;;;;;;;;;;;;2.98;100.00;96283.63;4995461;28;19980;-68
2022/10/17 01:45:08;;;;;;;;;;;;;;;3.15;100.00;96295.69;4999881;28;19921;-67
2022/10/17 01:47:37;;;;;;;;;;;;;;;3.01;100.00;96294.44;4995216;28;21479;-66
2022/10/17 01:50:12;;;;;;;;;;;;;;;3.21;100.00;96297.66;4990892;28;19935;-65
2022/10/17 01:52:43;;;;;;;;;;;;;;;3.15;100.00;96300.84;4980737;28;19925;-66
2022/10/17 01:55:13;;;;;;;;;;;;;;;3.16;100.00;96292.16;4989795;28;19983;-66
2022/10/17 01:57:42;;;;;;;;;;;;;;;2.91;100.00;96295.47;5014032;28;19937;-67
2022/10/17 02:00:13;;;;;;;;;;;;;;;2.94;100.00;96303.72;4992960;28;20302;-66
2022/10/17 02:02:42;;;;;;;;;;;;;;;2.81;100.00;96304.06;5017121;28;19936;-66
2022/10/17 02:05:08;;;;;;;;;;;;;;;2.48;100.00;96254.88;4991299;28;20061;-67
2022/10/17 02:07:35;;;;;;;;;;;;;;;2.86;100.00;96312.19;5012713;28;20238;-67
2022/10/17 02:10:09;;;;;;;;;;;;;;;2.92;100.00;96315.94;5009616;28;19929;-66
2022/10/17 02:12:41;;;;;;;;;;;;;;;2.86;100.00;96317.31;4995965;28;19925;-66
2022/10/17 02:15:20;;;;;;;;;;;;;;;2.89;100.00;96316.22;4992866;28;20007;-67
2022/10/17 02:17:56;;;;;;;;;;;;;;;2.80;100.00;96312.75;5013794;28;19932;-66
2022/10/17 02:20:29;;;;;;;;;;;;;;;2.77;100.00;96313.03;5007173;28;19937;-66
2022/10/17 02:22:56;;;;;;;;;;;;;;;2.38;100.00;96318.41;5007948;28;19970;-66
2022/10/17 02:25:30;;;;;;;;;;;;;;;2.03;100.00;96314.75;5012149;28;19940;-66
2022/10/17 02:27:56;;;;;;;;;;;;;;;2.18;100.00;96322.00;4992264;28;19929;-66
2022/10/17 02:30:26;;;;;;;;;;;;;;;2.39;100.00;96325.16;5009885;28;19926;-67
2022/10/17 02:33:12;;;;;;;;;;;;;;;2.45;100.00;96328.94;4988770;28;19929;-66
2022/10/17 02:35:42;;;;;;;;;;;;;;;2.29;100.00;96329.56;5012805;28;19929;-66
2022/10/17 02:38:10;;;;;;;;;;;;;;;1.79;100.00;96275.91;4993888;28;20010;-66
2022/10/17 02:40:38;;;;;;;;;;;;;;;2.16;100.00;96329.06;4993265;28;19937;-66
2022/10/17 02:43:05;;;;;;;;;;;;;;;1.97;100.00;96333.31;4989262;28;19929;-67
2022/10/17 02:45:35;;;;;;;;;;;;;;;1.92;100.00;96338.88;5021340;28;19929;-67
2022/10/17 02:48:06;;;;;;;;;;;;;;;2.10;100.00;96346.66;4993763;28;19936;-66
2022/10/17 02:50:41;;;;;;;;;;;;;;;1.97;100.00;96341.03;5013817;28;20817;-66
2022/10/17 02:53:10;;;;;;;;;;;;;;;2.01;100.00;96346.69;5005250;28;19930;-67
2022/10/17 02:55:39;;;;;;;;;;;;;;;2.00;100.00;96343.31;4995837;28;19925;-67
2022/10/17 02:58:12;;;;;;;;;;;;;;;2.08;100.00;96348.56;5010345;28;19925;-67
2022/10/17 03:00:40;;;;;;;;;;;;;;;2.16;100.00;96349.63;4993346;28;20595;-68
2022/10/17 03:03:33;;;;;;;;;;;;;;;2.01;100.00;96347.50;5015090;28;21324;-67
2022/10/17 03:06:00;;;;;;;;;;;;;;;2.04;100.00;96347.22;5008139;28;19925;-67
2022/10/17 03:08:27;;;;;;;;;;;;;;;2.13;100.00;96349.91;4999328;28;19952;-68
2022/10/17 03:10:55;;;;;;;;;;;;;;;1.78;100.00;96351.34;4984900;28;19956;-68
2022/10/17 03:13:22;;;;;;;;;;;;;;;1.51;100.00;96350.31;4995475;28;19936;-67
2022/10/17 03:15:48;;;;;;;;;;;;;;;1.53;100.00;96353.53;4991063;28;19936;-67
2022/10/17 03:18:16;;;;;;;;;;;;;;;1.47;100.00;96356.66;4999759;28;20051;-67
2022/10/17 03:20:44;;;;;;;;;;;;;;;1.42;100.00;96340.84;4995768;28;19925;-66
2022/10/17 03:23:10;;;;;;;;;;;;;;;1.53;100.00;96353.53;5007576;28;19952;-67
2022/10/17 03:25:37;;;;;;;;;;;;;;;1.69;100.00;96352.97;5010518;28;19921;-67
2022/10/17 03:28:04;;;;;;;;;;;;;;;1.63;100.00;96348.41;5013656;28;19929;-67
2022/10/17 03:30:32;;;;;;;;;;;;;;;1.77;100.00;96349.75;4992358;28;19936;-67
2022/10/17 03:32:59;;;;;;;;;;;;;;;1.68;100.00;96347.03;4991287;28;19929;-67
2022/10/17 03:35:26;;;;;;;;;;;;;;;1.68;100.00;96352.19;4994539;28;19937;-67
2022/10/17 03:37:56;;;;;;;;;;;;;;;1.83;100.00;96344.03;4986054;28;19964;-67
2022/10/17 03:40:25;;;;;;;;;;;;;;;2.19;100.00;96349.34;4992068;28;19995;-66
2022/10/17 03:42:52;;;;;;;;;;;;;;;1.88;100.00;96362.41;4988259;28;19929;-67
2022/10/17 03:45:19;;;;;;;;;;;;;;;1.89;100.00;96354.59;4992768;28;20194;-67
2022/10/17 03:47:47;;;;;;;;;;;;;;;1.99;100.00;96354.53;4989919;28;20621;-68
2022/10/17 03:50:14;;;;;;;;;;;;;;;2.03;100.00;96360.22;5011286;28;19983;-67
2022/10/17 03:52:45;;;;;;;;;;;;;;;2.03;100.00;96355.88;4984036;28;20051;-68
2022/10/17 03:55:12;;;;;;;;;;;;;;;2.21;100.00;96362.88;4994808;28;19936;-67
2022/10/17 03:57:39;;;;;;;;;;;;;;;2.25;100.00;96359.03;4991388;28;19976;-67
2022/10/17 04:00:11;;;;;;;;;;;;;;;2.03;100.00;96365.34;4987131;28;19964;-67
2022/10/17 04:02:40;;;;;;;;;;;;;;;1.74;100.00;96365.44;5008316;28;19929;-68
2022/10/17 04:05:11;;;;;;;;;;;;;;;1.81;100.00;96369.06;4991935;28;19967;-67
2022/10/17 04:07:39;;;;;;;;;;;;;;;1.51;100.00;96374.25;4991819;28;20546;-67
2022/10/17 04:10:06;;;;;;;;;;;;;;;1.76;100.00;96374.59;5014389;28;19986;-67
2022/10/17 04:12:34;;;;;;;;;;;;;;;1.67;100.00;96376.22;5011323;28;19930;-68
2022/10/17 04:15:00;;;;;;;;;;;;;;;1.50;100.00;96379.50;5027799;28;19933;-66
2022/10/17 04:17:29;;;;;;;;;;;;;;;1.39;100.00;96379.63;4996891;28;19925;-67
2022/10/17 04:20:03;;;;;;;;;;;;;;;1.56;100.00;96378.16;4994660;28;19932;-67
2022/10/17 04:22:30;;;;;;;;;;;;;;;1.56;100.00;96384.09;4997819;28;20849;-67
2022/10/17 04:24:57;;;;;;;;;;;;;;;1.18;100.00;96385.72;4993078;28;19940;-66
2022/10/17 04:27:31;;;;;;;;;;;;;;;1.06;100.00;96391.91;4995203;28;20019;-66
2022/10/17 04:29:57;;;;;;;;;;;;;;;1.06;100.00;96386.78;4992847;28;19936;-66
2022/10/17 04:32:24;;;;;;;;;;;;;;;1.12;100.00;96389.63;5013393;28;19975;-67
2022/10/17 04:35:20;;;;;;;;;;;;;;;1.10;100.00;96388.97;5002062;28;20063;-67
2022/10/17 04:37:53;;;;;;;;;;;;;;;1.11;100.00;96394.91;4995988;28;19929;-68
2022/10/17 04:40:20;;;;;;;;;;;;;;;1.07;100.00;96398.69;4991355;28;20094;-68
2022/10/17 04:42:48;;;;;;;;;;;;;;;0.98;100.00;96395.16;4992573;28;20781;-68
2022/10/17 04:45:19;;;;;;;;;;;;;;;0.99;100.00;96401.09;4993389;28;21384;-68
2022/10/17 04:47:49;;;;;;;;;;;;;;;0.98;100.00;96394.34;5020751;28;20548;-68
2022/10/17 04:50:16;;;;;;;;;;;;;;;1.06;100.00;96402.19;4995871;28;19992;-68
2022/10/17 04:53:01;;;;;;;;;;;;;;;1.28;100.00;96404.50;5011368;28;20014;-68
2022/10/17 04:55:28;;;;;;;;;;;;;;;1.21;100.00;96405.19;4993913;28;20004;-68
2022/10/17 04:57:55;;;;;;;;;;;;;;;1.22;100.00;96405.03;4990043;28;19936;-68
2022/10/17 05:00:22;;;;;;;;;;;;;;;1.23;100.00;96406.66;4990524;28;20673;-66
2022/10/17 05:02:58;;;;;;;;;;;;;;;1.34;100.00;96408.28;4996043;28;19935;-67
2022/10/17 05:05:26;;;;;;;;;;;;;;;1.37;100.00;96409.75;4995556;28;19933;-67
2022/10/17 05:07:54;;;;;;;;;;;;;;;1.48;100.00;96407.09;4991028;28;19929;-69
2022/10/17 05:10:24;;;;;;;;;;;;;;;1.64;100.00;96407.34;5017448;28;20973;-69
2022/10/17 05:12:52;;;;;;;;;;;;;;;1.64;100.00;96407.34;4986458;28;20545;-69
2022/10/17 05:15:21;;;;;;;;;;;;;;;1.64;100.00;96412.50;4980604;28;19937;-68
2022/10/17 05:17:53;;;;;;;;;;;;;;;1.80;100.00;96413.66;5014160;28;20215;-68
2022/10/17 05:20:20;;;;;;;;;;;;;;;2.05;100.00;96420.81;4994037;28;19983;-67
2022/10/17 05:22:47;;;;;;;;;;;;;;;2.37;100.00;96423.97;4987324;28;19936;-67
2022/10/17 05:25:14;;;;;;;;;;;;;;;2.19;100.00;96421.31;4999095;28;20449;-68
2022/10/17 05:27:41;;;;;;;;;;;;;;;2.22;100.00;96421.06;5010698;28;20397;-68
2022/10/17 05:30:08;;;;;;;;;;;;;;;2.34;100.00;96425.09;4993205;28;19941;-68
2022/10/17 05:32:36;;;;;;;;;;;;;;;2.55;100.00;96422.28;4990550;28;19925;-68
2022/10/17 05:35:03;;;;;;;;;;;;;;;2.84;100.00;96437.59;4991789;28;19929;-68
2022/10/17 05:37:31;;;;;;;;;;;;;;;2.91;100.00;96437.03;4988685;28;19963;-68
2022/10/17 05:39:59;;;;;;;;;;;;;;;3.09;100.00;96439.63;4977377;28;19929;-69
2022/10/17 05:42:28;;;;;;;;;;;;;;;3.25;100.00;96435.47;4981288;28;19965;-69
2022/10/17 05:44:56;;;;;;;;;;;;;;;3.36;100.00;96437.00;4992502;28;19929;-70
2022/10/17 05:47:25;;;;;;;;;;;;;;;3.52;100.00;96446.66;4992588;28;19936;-70
2022/10/17 05:49:52;;;;;;;;;;;;;;;3.61;100.00;96455.28;4995087;28;19929;-69
2022/10/17 05:52:24;;;;;;;;;;;;;;;3.70;100.00;96456.19;4994600;28;19936;-63
2022/10/17 05:55:04;;;;;;;;;;;;;;;3.99;100.00;96464.47;4987925;28;19930;-65
2022/10/17 05:57:32;;;;;;;;;;;;;;;4.25;100.00;96462.88;4992490;28;19925;-66
2022/10/17 05:59:59;;;;;;;;;;;;;;;4.57;100.00;96464.84;4991579;28;20481;-63
2022/10/17 06:02:27;;;;;;;;;;;;;;;4.86;100.00;96471.44;5011085;28;19941;-65
2022/10/17 06:04:55;;;;;;;;;;;;;;;4.95;100.00;96473.09;4987061;28;19929;-65
2022/10/17 06:07:22;;;;;;;;;;;;;;;5.03;100.00;96462.81;4991150;28;19949;-66
2022/10/17 06:09:49;;;;;;;;;;;;;;;5.10;100.00;96468.97;4987299;28;20760;-69
2022/10/17 06:12:16;;;;;;;;;;;;;;;5.23;100.00;96478.06;4988268;28;19925;-64
2022/10/17 06:14:45;;;;;;;;;;;;;;;5.28;100.00;96475.81;4995816;28;19929;-68
2022/10/17 06:17:13;;;;;;;;;;;;;;;5.61;100.00;96486.22;4989834;28;20954;-69
2022/10/17 06:19:43;;;;;;;;;;;;;;;5.69;100.00;96478.47;4991856;28;20597;-68
2022/10/17 06:22:13;;;;;;;;;;;;;;;5.83;100.00;96483.00;4989351;28;19987;-67
2022/10/17 06:24:40;;;;;;;;;;;;;;;6.09;100.00;96489.84;4988996;28;20038;-67
2022/10/17 06:27:07;;;;;;;;;;;;;;;6.20;100.00;96492.13;4988774;28;19933;-69
2022/10/17 06:29:39;;;;;;;;;;;;;;;6.34;100.00;96492.41;4986377;28;19933;-69
2022/10/17 06:32:06;;;;;;;;;;;;;;;6.16;100.00;96496.00;5006556;28;20525;-69
2022/10/17 06:34:39;;;;;;;;;;;;;;;6.02;100.00;96496.66;4993597;28;19925;-70
2022/10/17 06:37:06;;;;;;;;;;;;;;;6.30;100.00;96497.94;5002902;28;20015;-67
2022/10/17 06:39:35;;;;;;;;;;;;;;;6.27;100.00;96456.84;4992578;28;19936;-66
2022/10/17 06:42:10;;;;;;;;;;;;;;;6.88;100.00;96500.44;5017087;28;19934;-66
2022/10/17 06:44:52;;;;;;;;;;;;;;;6.86;100.00;96507.53;4992125;28;19952;-67
2022/10/17 06:47:42;;;;;;;;;;;;;;;6.95;100.00;96500.53;5000938;28;20445;-66
2022/10/17 06:50:26;;;;;;;;;;;;;;;7.30;100.00;96491.50;4981013;28;20197;-68
2022/10/17 06:53:12;;;;;;;;;;;;;;;7.32;100.00;96496.53;5007821;28;19933;-66
2022/10/17 06:56:00;;;;;;;;;;;;;;;7.42;100.00;96500.53;5009351;28;19933;-67
2022/10/17 06:58:54;;;;;;;;;;;;;;;8.35;100.00;96497.94;5005305;28;19959;-65
2022/10/17 07:01:41;;;;;;;;;;;;;;;7.96;100.00;96501.50;5007599;28;21169;-67
2022/10/17 07:04:13;;;;;;;;;;;;;;;7.89;100.00;96503.19;4988725;28;19981;-67
2022/10/17 07:06:40;;;;;;;;;;;;;;;8.15;100.00;96508.81;4996307;28;19955;-68
2022/10/17 07:09:13;;;;;;;;;;;;;;;8.36;100.00;96504.78;4984050;28;19925;-68
2022/10/17 07:11:40;;;;;;;;;;;;;;;8.27;100.00;96505.81;4988414;28;19936;-65
2022/10/17 07:14:07;;;;;;;;;;;;;;;8.38;100.00;96503.59;5006506;28;20791;-66
2022/10/17 07:16:34;;;;;;;;;;;;;;;8.41;100.00;96507.66;4985668;28;19925;-66
2022/10/17 07:19:07;;;;;;;;;;;;;;;8.69;100.00;96499.28;4990192;28;20643;-66
2022/10/17 07:21:36;;;;;;;;;;;;;;;8.93;100.00;96501.66;4986704;28;20020;-66
2022/10/17 07:24:06;;;;;;;;;;;;;;;8.97;100.00;96512.50;4992958;28;19929;-66
2022/10/17 07:26:33;;;;;;;;;;;;;;;8.94;100.00;96500.66;4984924;28;19925;-66
2022/10/17 07:29:01;;;;;;;;;;;;;;;9.03;100.00;96500.56;4991886;28;19922;-66
2022/10/17 07:31:47;;;;;;;;;;;;;;;9.07;100.00;96507.81;4988502;28;19940;-66
2022/10/17 07:34:19;;;;;;;;;;;;;;;9.44;100.00;96523.50;4991214;28;20450;-66
2022/10/17 07:36:46;;;;;;;;;;;;;;;9.56;100.00;96506.41;4988968;28;19933;-65
2022/10/17 07:39:13;;;;;;;;;;;;;;;9.72;100.00;96506.19;4990018;28;20030;-66
2022/10/17 07:41:40;;;;;;;;;;;;;;;9.69;100.00;96514.38;5010378;28;20683;-67
2022/10/17 07:44:07;;;;;;;;;;;;;;;9.63;100.00;96517.69;4996504;28;20325;-66
2022/10/17 07:46:41;;;;;;;;;;;;;;;9.46;100.00;96516.31;4994187;28;19940;-66
2022/10/17 07:49:07;;;;;;;;;;;;;;;9.69;100.00;96516.16;5010853;28;19929;-66
2022/10/17 07:51:34;;;;;;;;;;;;;;;10.08;100.00;96507.97;5014983;28;19992;-65
2022/10/17 07:54:00;;;;;;;;;;;;;;;10.44;100.00;96516.69;5013296;28;19933;-64
2022/10/17 07:56:28;;;;;;;;;;;;;;;10.48;100.00;96521.34;5017027;28;20272;-65
2022/10/17 07:59:00;;;;;;;;;;;;;;;10.72;100.00;96519.31;5008248;28;20032;-65
2022/10/17 08:01:32;;;;;;;;;;;;;;;10.66;100.00;96512.22;5013106;28;19933;-64
2022/10/17 08:03:58;;;;;;;;;;;;;;;10.55;100.00;96512.75;5008195;28;20015;-65
2022/10/17 08:06:25;;;;;;;;;;;;;;;10.85;100.00;96516.78;5008278;28;20011;-65
2022/10/17 08:08:52;;;;;;;;;;;;;;;11.01;100.00;96520.09;5003670;28;20590;-65
2022/10/17 08:11:18;;;;;;;;;;;;;;;11.28;100.00;96513.22;5011052;28;19937;-65
2022/10/17 08:13:45;;;;;;;;;;;;;;;11.33;100.00;96510.03;5005280;28;20016;-64
2022/10/17 08:16:13;;;;;;;;;;;;;;;11.49;100.00;96512.31;5009648;28;19964;-66
2022/10/17 08:18:40;;;;;;;;;;;;;;;11.72;100.00;96511.16;5007006;28;19940;-65
2022/10/17 08:21:08;;;;;;;;;;;;;;;12.01;100.00;96516.09;5011902;28;19936;-65
2022/10/17 08:23:36;;;;;;;;;;;;;;;12.32;100.00;96506.09;4991741;28;19925;-66
2022/10/17 08:26:04;;;;;;;;;;;;;;;12.71;100.00;96510.50;5006754;28;19976;-65
2022/10/17 08:28:33;;;;;;;;;;;;;;;12.84;91.48;96509.66;5010478;28;20909;-65
2022/10/17 08:31:05;;;;;;;;;;;;;;;12.69;89.47;96515.09;5010427;28;20492;-65
2022/10/17 08:33:32;;;;;;;;;;;;;;;12.42;88.87;96507.28;5018972;28;19933;-65
2022/10/17 08:35:59;;;;;;;;;;;;;;;12.59;86.97;96506.88;5014252;28;20026;-64
2022/10/17 08:38:27;;;;;;;;;;;;;;;12.82;87.99;96524.75;5011135;28;19929;-64
2022/10/17 08:40:58;;;;;;;;;;;;;;;13.04;84.75;96512.25;5014208;28;21349;-64
2022/10/17 08:43:30;;;;;;;;;;;;;;;12.88;83.28;96510.06;5015657;28;19956;-66
2022/10/17 08:46:03;;;;;;;;;;;;;;;12.79;83.47;96507.66;5010592;28;19932;-64
2022/10/17 08:48:31;;;;;;;;;;;;;;;13.14;82.65;96510.00;5018557;28;20358;-64
2022/10/17 08:51:01;;;;;;;;;;;;;;;13.12;81.07;96517.25;5009037;28;19925;-64
2022/10/17 08:53:41;;;;;;;;;;;;;;;13.52;80.97;96506.69;5008964;28;19925;-64
2022/10/17 08:56:19;;;;;;;;;;;;;;;14.21;76.92;96520.00;5012068;28;19932;-65
2022/10/17 08:59:13;;;;;;;;;;;;;;;14.27;66.05;96519.13;5013369;28;19925;-64
2022/10/17 09:01:51;;;;;;;;;;;;;;;14.27;66.27;96511.28;5010868;28;20666;-65
2022/10/17 09:04:21;;;;;;;;;;;;;;;14.82;65.02;96515.09;5010526;28;19932;-65
2022/10/17 09:06:48;;;;;;;;;;;;;;;14.81;64.52;96518.75;5008414;28;19927;-65
2022/10/17 09:09:14;;;;;;;;;;;;;;;15.07;64.38;96508.00;5009443;28;19926;-65
2022/10/17 09:11:55;;;;;;;;;;;;;;;15.03;63.20;96512.06;5010754;28;20602;-66
2022/10/17 09:14:41;;;;;;;;;;;;;;;15.38;64.47;96508.88;5006874;28;20653;-66
2022/10/17 09:17:15;;;;;;;;;;;;;;;15.40;60.65;96512.06;5011304;28;20633;-66
2022/10/17 09:20:08;;;;;;;;;;;;;;;15.81;61.53;96513.22;5016490;28;20020;-66
2022/10/17 09:22:42;;;;;;;;;;;;;;;16.21;58.63;96512.66;5001560;28;19925;-66
2022/10/17 09:25:11;;;;;;;;;;;;;;;16.80;56.76;96522.47;5010363;28;19936;-66
2022/10/17 09:27:40;;;;;;;;;;;;;;;16.65;52.41;96516.84;5010377;28;20026;-66
2022/10/17 09:30:16;;;;;;;;;;;;;;;16.82;50.90;96525.66;5011551;28;19979;-66
2022/10/17 09:33:13;;;;;;;;;;;;;;;16.72;49.77;96517.53;5006989;28;20022;-66
2022/10/17 09:36:01;;;;;;;;;;;;;;;16.45;50.07;96512.69;5016265;28;20026;-66
2022/10/17 09:38:33;;;;;;;;;;;;;;;17.00;48.73;96517.66;5009215;28;19959;-66
2022/10/17 09:41:01;;;;;;;;;;;;;;;17.25;47.44;96516.63;5009189;28;19964;-66
2022/10/17 09:43:28;;;;;;;;;;;;;;;17.11;47.00;96515.25;5010610;28;19975;-66
2022/10/17 09:46:01;;;;;;;;;;;;;;;16.93;47.59;96506.47;5010568;28;20618;-66
2022/10/17 09:48:27;;;;;;;;;;;;;;;17.64;42.87;96508.94;5012049;28;19987;-67
2022/10/17 09:50:54;;;;;;;;;;;;;;;18.10;42.44;96504.53;5008634;28;19943;-67
2022/10/17 09:53:44;;;;;;;;;;;;;;;18.69;38.78;96509.44;5007780;28;19987;-67
2022/10/17 09:56:12;;;;;;;;;;;;;;;19.06;37.99;96513.44;5007957;28;19965;-67
2022/10/17 09:58:40;;;;;;;;;;;;;;;19.31;35.93;96505.03;5012057;28;20527;-67
2022/10/17 10:01:18;;;;;;;;;;;;;;;19.20;36.76;96504.09;5007214;28;20038;-67
2022/10/17 10:04:08;;;;;;;;;;;;;;;19.68;36.52;96494.63;5013189;28;19925;-67
2022/10/17 10:06:35;;;;;;;;;;;;;;;19.70;35.56;96496.22;5009153;28;20040;-67
2022/10/17 10:09:04;;;;;;;;;;;;;;;19.85;31.50;96499.06;5007991;28;19937;-66
2022/10/17 10:11:47;;;;;;;;;;;;;;;20.04;31.76;96487.09;5007376;28;19940;-65
2022/10/17 10:14:27;;;;;;;;;;;;;;;20.12;31.06;96492.97;5014917;28;19925;-66
2022/10/17 10:16:54;;;;;;;;;;;;;;;20.35;29.92;96487.34;5009771;28;20853;-66
2022/10/17 10:19:20;;;;;;;;;;;;;;;20.64;26.86;96500.31;5014623;28;20421;-67
2022/10/17 10:21:54;;;;;;;;;;;;;;;20.49;28.26;96481.63;5006740;28;20056;-65
2022/10/17 10:24:21;;;;;;;;;;;;;;;20.59;29.14;96481.72;5008715;28;20329;-66
2022/10/17 10:26:57;;;;;;;;;;;;;;;20.52;30.51;96475.84;5007675;28;20075;-66
2022/10/17 10:29:29;;;;;;;;;;;;;;;20.55;29.97;96485.94;5008059;28;20012;-67
2022/10/17 10:32:15;;;;;;;;;;;;;;;20.74;28.18;96484.50;5007996;28;19965;-67
2022/10/17 10:34:54;;;;;;;;;;;;;;;21.07;29.35;96482.56;5004543;28;20605;-67
2022/10/17 10:37:23;;;;;;;;;;;;;;;21.08;28.29;96468.25;5003795;28;19965;-66
2022/10/17 10:39:51;;;;;;;;;;;;;;;21.13;27.67;96475.44;5014135;28;19982;-66
2022/10/17 10:42:23;;;;;;;;;;;;;;;21.18;28.14;96468.31;5004273;28;19995;-66
2022/10/17 10:44:50;;;;;;;;;;;;;;;20.55;28.21;96459.47;5006485;28;20027;-67
2022/10/17 10:47:23;;;;;;;;;;;;;;;20.75;27.93;96474.69;5005955;28;20464;-67
2022/10/17 10:49:51;;;;;;;;;;;;;;;20.66;29.03;96466.44;5007688;28;20637;-67
2022/10/17 10:52:26;;;;;;;;;;;;;;;21.16;28.14;96464.34;5012002;28;20466;-67
2022/10/17 10:54:56;;;;;;;;;;;;;;;21.36;28.93;96463.63;5004850;28;19951;-67
2022/10/17 10:57:26;;;;;;;;;;;;;;;21.79;29.14;96466.94;5009735;28;20076;-68
2022/10/17 10:59:57;;;;;;;;;;;;;;;22.01;28.42;96447.34;5009526;28;19933;-68
2022/10/17 11:02:30;;;;;;;;;;;;;;;22.35;28.88;96452.19;5015027;28;19929;-65
2022/10/17 11:05:00;;;;;;;;;;;;;;;22.82;26.45;96451.03;5006989;28;19937;-67
2022/10/17 11:07:38;;;;;;;;;;;;;;;22.53;27.06;96448.97;5007288;28;19935;-67
2022/10/17 11:10:07;;;;;;;;;;;;;;;22.24;26.38;96456.66;5002359;28;19987;-67
2022/10/17 11:12:38;;;;;;;;;;;;;;;21.40;26.63;96454.09;5010413;28;19929;-68
2022/10/17 11:15:08;;;;;;;;;;;;;;;21.29;27.75;96450.59;5003475;28;19933;-67
2022/10/17 11:17:34;;;;;;;;;;;;;;;21.27;27.41;96449.28;5014925;28;19925;-67
2022/10/17 11:20:05;;;;;;;;;;;;;;;21.87;26.71;96449.72;5010675;28;21429;-67
2022/10/17 11:22:53;;;;;;;;;;;;;;;22.58;27.11;96446.31;5010615;28;20073;-68
2022/10/17 11:25:36;;;;;;;;;;;;;;;22.00;26.80;96441.22;5007722;28;19935;-67
2022/10/17 11:28:10;;;;;;;;;;;;;;;22.69;25.58;96439.13;5009358;28;19956;-69
2022/10/17 11:30:40;;;;;;;;;;;;;;;23.19;25.85;96439.25;5008745;28;20019;-70
2022/10/17 11:33:09;;;;;;;;;;;;;;;23.60;26.81;96439.06;4991949;28;20016;-70
2022/10/17 11:35:38;;;;;;;;;;;;;;;24.14;27.25;96438.19;5011459;28;19987;-71
2022/10/17 11:38:24;;;;;;;;;;;;;;;23.79;24.55;96441.88;5010510;28;19976;-66
2022/10/17 11:40:54;;;;;;;;;;;;;;;23.27;25.29;96441.34;5009852;28;19984;-66
2022/10/17 11:43:30;;;;;;;;;;;;;;;23.16;25.55;96429.97;5011262;28;19936;-66
2022/10/17 11:46:17;;;;;;;;;;;;;;;23.63;24.60;96438.50;5011227;28;19972;-67
2022/10/17 11:48:54;;;;;;;;;;;;;;;24.19;25.19;96424.84;5005322;28;19965;-67
2022/10/17 11:51:22;;;;;;;;;;;;;;;23.27;24.48;96425.41;5012287;28;20024;-66
2022/10/17 11:54:23;;;;;;;;;;;;;;;21.96;25.63;96425.06;5012839;28;19925;-65
2022/10/17 11:57:03;;;;;;;;;;;;;;;21.74;26.55;96416.56;5006288;28;19930;-67
2022/10/17 11:59:49;;;;;;;;;;;;;;;22.68;26.27;96419.72;4990704;28;19933;-67
2022/10/17 12:02:38;;;;;;;;;;;;;;;23.05;25.83;96369.97;5009710;28;19929;-67
2022/10/17 12:05:17;;;;;;;;;;;;;;;23.89;25.69;96417.09;4997589;28;19937;-66
2022/10/17 12:07:50;;;;;;;;;;;;;;;24.51;24.77;96415.50;5007631;28;20014;-66
2022/10/17 12:10:16;;;;;;;;;;;;;;;24.70;24.08;96417.47;5007100;28;19987;-68
2022/10/17 12:12:46;;;;;;;;;;;;;;;25.09;23.54;96427.19;5006011;28;19929;-68
2022/10/17 12:15:12;;;;;;;;;;;;;;;25.02;22.13;96424.06;5005310;28;19933;-68
2022/10/17 12:17:43;;;;;;;;;;;;;;;24.45;23.28;96421.16;5009643;28;19929;-67
2022/10/17 12:20:20;;;;;;;;;;;;;;;25.09;23.15;96424.53;5004651;28;19969;-67
2022/10/17 12:22:48;;;;;;;;;;;;;;;24.86;22.66;96424.22;4999961;28;21319;-67
2022/10/17 12:25:20;;;;;;;;;;;;;;;24.10;22.98;96421.19;5003686;28;19964;-67
2022/10/17 12:27:47;;;;;;;;;;;;;;;23.97;23.48;96421.84;5010631;28;20040;-67
2022/10/17 12:30:16;;;;;;;;;;;;;;;24.61;22.21;96410.13;5008155;28;19965;-67
2022/10/17 12:33:04;;;;;;;;;;;;;;;25.35;23.15;96417.81;5009361;28;19956;-67
2022/10/17 12:35:34;;;;;;;;;;;;;;;25.22;21.73;96418.47;4990924;28;19933;-67
2022/10/17 12:38:18;;;;;;;;;;;;;;;25.94;22.53;96412.19;5009952;28;20084;-67
2022/10/17 12:40:49;;;;;;;;;;;;;;;26.60;20.33;96406.84;5008144;28;21502;-75
2022/10/17 12:43:16;;;;;;;;;;;;;;;25.64;21.45;96408.91;5013148;28;19936;-75
2022/10/17 12:45:47;;;;;;;;;;;;;;;24.36;22.40;96397.00;4991572;28;19929;-75
2022/10/17 12:48:32;;;;;;;;;;;;;;;24.30;22.57;96406.91;4991250;28;19930;-75
2022/10/17 12:51:01;;;;;;;;;;;;;;;24.14;23.18;96400.13;4990608;28;20032;-74
2022/10/17 12:53:58;;;;;;;;;;;;;;;24.13;22.67;96403.84;4987446;28;19929;-74
2022/10/17 12:56:47;;;;;;;;;;;;;;;24.58;22.43;96410.69;4985290;28;20669;-73
2022/10/17 12:59:16;;;;;;;;;;;;;;;25.88;21.78;96413.34;4992470;28;20469;-74
2022/10/17 13:01:45;;;;;;;;;;;;;;;26.47;20.98;96409.19;4990946;28;19937;-74
2022/10/17 13:04:12;;;;;;;;;;;;;;;25.96;20.63;96415.38;4988807;28;19937;-74
2022/10/17 13:06:44;;;;;;;;;;;;;;;25.64;20.86;96405.41;4990623;28;19937;-69
2022/10/17 13:09:25;;;;;;;;;;;;;;;26.51;20.89;96399.50;4993582;28;20379;-69